Time;durP1;ratioP1;P1;durP2;ratioP2;P2;SDS_P1;SDS_P2;PMS_P1;PMS_P2;Temp;Humidity;BMP_temperature;BMP_pressure;BME280_temperature;BME280_humidity;BME280_pressure;Samples;Min_cycle;Max_cycle;Signal;HPM_P1;HPM_P2
2023/04/06 00:00:57;;;;;;;4.43;3.00;;;5.40;67.10;;;;;;5072566;28;20475;-71
2023/04/06 00:03:23;;;;;;;7.60;2.97;;;5.40;67.00;;;;;;5072285;28;20412;-71
2023/04/06 00:05:48;;;;;;;4.63;2.88;;;5.40;67.10;;;;;;5072218;28;20106;-71
2023/04/06 00:08:14;;;;;;;6.60;3.42;;;5.30;67.30;;;;;;5072186;28;20033;-71
2023/04/06 00:10:40;;;;;;;7.20;3.10;;;5.30;67.70;;;;;;5072109;28;20071;-71
2023/04/06 00:13:07;;;;;;;3.97;2.80;;;5.30;67.90;;;;;;5038832;28;20079;-71
2023/04/06 00:15:33;;;;;;;6.80;3.40;;;5.20;67.70;;;;;;5055391;28;20036;-71
2023/04/06 00:17:59;;;;;;;6.10;3.17;;;5.20;67.90;;;;;;5072042;28;20508;-71
2023/04/06 00:20:25;;;;;;;6.00;3.45;;;5.20;68.10;;;;;;5055281;28;20142;-71
2023/04/06 00:22:50;;;;;;;4.55;3.30;;;5.10;67.90;;;;;;5055569;28;20033;-71
2023/04/06 00:25:16;;;;;;;6.40;3.35;;;5.00;68.10;;;;;;5071976;28;20493;-71
2023/04/06 00:27:42;;;;;;;5.85;3.17;;;5.00;68.10;;;;;;5071924;28;20086;-71
2023/04/06 00:30:08;;;;;;;7.28;3.20;;;5.00;68.20;;;;;;5071902;28;20074;-71
2023/04/06 00:32:35;;;;;;;5.15;3.42;;;5.00;68.50;;;;;;5071896;28;20096;-71
2023/04/06 00:35:02;;;;;;;5.47;3.13;;;4.90;68.50;;;;;;5055195;28;20055;-71
2023/04/06 00:37:28;;;;;;;6.75;3.58;;;4.90;68.80;;;;;;5071831;28;20508;-71
2023/04/06 00:39:54;;;;;;;6.18;3.42;;;4.90;68.90;;;;;;5055175;28;20039;-71
2023/04/06 00:42:25;;;;;;;5.20;3.28;;;4.90;69.10;;;;;;5071805;28;20526;-71
2023/04/06 00:44:56;;;;;;;5.85;3.45;;;4.90;69.00;;;;;;5055373;28;20431;-71
2023/04/06 00:47:24;;;;;;;5.45;3.53;;;4.90;69.50;;;;;;5055131;28;20127;-71
2023/04/06 00:49:50;;;;;;;7.20;3.67;;;4.80;69.50;;;;;;5054938;28;20048;-71
2023/04/06 00:52:18;;;;;;;6.93;3.33;;;4.70;69.70;;;;;;5055199;28;20048;-71
2023/04/06 00:54:44;;;;;;;6.50;3.28;;;4.80;69.80;;;;;;5055245;28;20052;-71
2023/04/06 00:57:13;;;;;;;5.53;3.50;;;4.80;69.90;;;;;;5071613;28;20048;-71
2023/04/06 00:59:39;;;;;;;7.50;3.90;;;4.70;69.90;;;;;;5055116;28;20036;-71
2023/04/06 01:02:05;;;;;;;5.82;3.72;;;4.70;70.30;;;;;;5054850;28;20063;-71
2023/04/06 01:04:32;;;;;;;6.38;3.15;;;4.70;70.40;;;;;;5071650;28;20042;-71
2023/04/06 01:06:57;;;;;;;7.30;3.25;;;4.70;70.60;;;;;;5073069;28;20123;-71
2023/04/06 01:09:23;;;;;;;5.95;3.55;;;4.60;70.60;;;;;;5075555;28;20128;-71
2023/04/06 01:11:49;;;;;;;6.13;3.40;;;4.60;70.50;;;;;;5075583;28;20044;-71
2023/04/06 01:14:15;;;;;;;5.38;3.28;;;4.60;70.50;;;;;;5075556;28;20123;-71
2023/04/06 01:16:41;;;;;;;7.40;3.63;;;4.60;70.60;;;;;;5058730;28;20044;-71
2023/04/06 01:19:11;;;;;;;6.55;3.13;;;4.50;70.60;;;;;;5042225;28;20036;-71
2023/04/06 01:21:38;;;;;;;6.70;3.53;;;4.60;70.80;;;;;;5042133;28;20123;-71
2023/04/06 01:24:04;;;;;;;9.95;4.00;;;4.50;70.90;;;;;;5075367;28;20037;-71
2023/04/06 01:26:30;;;;;;;5.63;3.58;;;4.50;71.00;;;;;;5075254;28;20036;-71
2023/04/06 01:28:56;;;;;;;6.07;3.53;;;4.50;70.80;;;;;;5058578;28;20119;-71
2023/04/06 01:31:22;;;;;;;5.78;3.45;;;4.50;70.60;;;;;;5058709;28;20083;-71
2023/04/06 01:33:48;;;;;;;5.88;3.22;;;4.50;70.70;;;;;;5058492;28;20041;-71
2023/04/06 01:36:14;;;;;;;4.90;3.17;;;4.50;70.40;;;;;;5058620;28;20032;-71
2023/04/06 01:38:41;;;;;;;6.30;3.35;;;4.50;70.50;;;;;;5058667;28;20577;-71
2023/04/06 01:41:07;;;;;;;6.20;3.60;;;4.50;70.60;;;;;;5058141;28;20519;-71
2023/04/06 01:43:33;;;;;;;6.93;3.60;;;4.50;70.60;;;;;;5041651;28;20032;-71
2023/04/06 01:45:59;;;;;;;7.25;3.50;;;4.50;70.50;;;;;;5074941;28;20044;-71
2023/04/06 01:48:25;;;;;;;7.97;3.40;;;4.40;70.40;;;;;;5058250;28;20048;-71
2023/04/06 01:50:51;;;;;;;5.65;3.45;;;4.50;70.80;;;;;;5075590;28;20083;-71
2023/04/06 01:53:16;;;;;;;5.38;3.58;;;4.40;70.70;;;;;;5074797;28;20072;-71
2023/04/06 01:55:42;;;;;;;10.55;3.20;;;4.50;70.80;;;;;;5074697;28;20076;-71
2023/04/06 01:58:07;;;;;;;7.53;3.80;;;4.40;70.50;;;;;;5074964;28;20086;-71
2023/04/06 02:00:33;;;;;;;6.82;3.50;;;4.40;70.60;;;;;;5074571;28;20453;-71
2023/04/06 02:02:59;;;;;;;6.13;3.63;;;4.40;70.50;;;;;;5074602;28;20039;-71
2023/04/06 02:05:25;;;;;;;7.07;3.55;;;4.40;70.40;;;;;;5074572;28;20041;-71
2023/04/06 02:07:51;;;;;;;5.07;3.15;;;4.40;70.40;;;;;;5057875;28;20071;-71
2023/04/06 02:10:17;;;;;;;7.25;3.53;;;4.40;70.50;;;;;;5057740;28;20075;-71
2023/04/06 02:12:43;;;;;;;8.15;3.78;;;4.40;70.30;;;;;;5041240;28;20090;-71
2023/04/06 02:15:09;;;;;;;5.57;3.35;;;4.40;70.50;;;;;;5074662;28;20048;-71
2023/04/06 02:17:35;;;;;;;5.97;3.70;;;4.30;70.50;;;;;;5057176;28;20500;-71
2023/04/06 02:20:00;;;;;;;6.18;3.63;;;4.40;70.70;;;;;;5057856;28;20036;-71
2023/04/06 02:22:26;;;;;;;5.50;3.22;;;4.40;70.70;;;;;;5074306;28;20037;-71
2023/04/06 02:24:51;;;;;;;7.88;3.50;;;4.40;70.70;;;;;;5074236;28;20123;-71
2023/04/06 02:27:17;;;;;;;6.88;3.53;;;4.40;70.50;;;;;;5057528;28;20036;-71
2023/04/06 02:29:42;;;;;;;7.45;3.70;;;4.30;70.50;;;;;;5057417;28;20039;-71
2023/04/06 02:32:08;;;;;;;6.47;3.65;;;4.30;70.40;;;;;;5074128;28;20090;-71
2023/04/06 02:34:34;;;;;;;6.57;3.38;;;4.30;70.40;;;;;;5074080;28;20041;-71
2023/04/06 02:36:59;;;;;;;5.82;4.10;;;4.30;70.40;;;;;;5073988;28;20067;-71
2023/04/06 02:39:25;;;;;;;8.95;3.75;;;4.30;70.40;;;;;;5074011;28;20067;-71
2023/04/06 02:41:50;;;;;;;7.97;4.20;;;4.30;70.50;;;;;;5073987;28;20529;-71
2023/04/06 02:44:16;;;;;;;7.32;4.55;;;4.30;70.80;;;;;;5073965;28;20110;-71
2023/04/06 02:46:42;;;;;;;7.47;3.53;;;4.20;70.80;;;;;;5040907;28;20055;-71
2023/04/06 02:49:07;;;;;;;6.85;3.65;;;4.20;70.90;;;;;;5074108;28;20404;-71
2023/04/06 02:51:33;;;;;;;6.20;3.78;;;4.20;70.80;;;;;;5057032;28;20047;-71
2023/04/06 02:53:59;;;;;;;5.32;3.85;;;4.20;71.00;;;;;;5073655;28;20045;-71
2023/04/06 02:56:26;;;;;;;6.00;3.85;;;4.20;71.10;;;;;;5073586;28;20067;-71
2023/04/06 02:58:51;;;;;;;6.03;3.90;;;4.20;71.00;;;;;;5073603;28;20535;-71
2023/04/06 03:01:17;;;;;;;5.88;3.33;;;4.10;71.00;;;;;;5073769;28;20072;-71
2023/04/06 03:03:43;;;;;;;6.28;3.63;;;4.10;70.90;;;;;;5073836;28;20517;-71
2023/04/06 03:06:08;;;;;;;8.52;3.95;;;4.10;70.90;;;;;;5056778;28;20036;-71
2023/04/06 03:08:34;;;;;;;8.13;4.07;;;4.10;71.00;;;;;;5073697;28;20082;-71
2023/04/06 03:11:00;;;;;;;6.05;3.78;;;4.10;71.20;;;;;;5073322;28;20577;-71
2023/04/06 03:13:25;;;;;;;6.95;3.97;;;4.10;71.30;;;;;;5073258;28;20040;-71
2023/04/06 03:15:51;;;;;;;6.80;3.72;;;4.00;71.30;;;;;;5073199;28;20061;-71
2023/04/06 03:18:22;;;;;;;7.40;4.00;;;4.00;71.40;;;;;;5073458;28;20127;-71
2023/04/06 03:20:47;;;;;;;8.80;4.20;;;4.00;71.40;;;;;;5056437;28;20500;-71
2023/04/06 03:23:13;;;;;;;8.10;4.00;;;4.00;71.50;;;;;;5073104;28;20043;-71
2023/04/06 03:25:39;;;;;;;6.75;4.30;;;4.00;71.50;;;;;;5056704;28;20036;-71
2023/04/06 03:28:05;;;;;;;6.05;4.22;;;3.90;71.60;;;;;;5072994;28;20043;-71
2023/04/06 03:30:31;;;;;;;7.70;4.22;;;3.90;71.70;;;;;;5055378;28;20119;-71
2023/04/06 03:32:56;;;;;;;6.75;4.10;;;3.90;71.70;;;;;;5072874;28;20032;-71
2023/04/06 03:35:22;;;;;;;5.10;3.90;;;3.90;71.90;;;;;;5072836;28;20040;-71
2023/04/06 03:37:47;;;;;;;6.97;3.63;;;3.90;71.90;;;;;;5072682;28;20032;-71
2023/04/06 03:40:13;;;;;;;6.57;4.30;;;3.90;71.80;;;;;;5072535;28;20043;-71
2023/04/06 03:42:39;;;;;;;8.05;4.25;;;3.80;71.90;;;;;;5072705;28;20040;-71
2023/04/06 03:45:05;;;;;;;6.40;4.18;;;3.80;71.80;;;;;;5072619;28;20039;-71
2023/04/06 03:47:30;;;;;;;8.73;4.35;;;3.80;72.10;;;;;;5072884;28;20083;-71
2023/04/06 03:49:56;;;;;;;7.60;3.85;;;3.70;72.30;;;;;;5072775;28;20063;-71
2023/04/06 03:52:22;;;;;;;10.23;4.80;;;3.70;72.30;;;;;;5072509;28;20139;-71
2023/04/06 03:54:48;;;;;;;5.53;4.07;;;3.70;72.30;;;;;;5055828;28;20048;-71
2023/04/06 03:57:14;;;;;;;6.97;3.60;;;3.70;72.20;;;;;;5072479;28;20135;-71
2023/04/06 03:59:40;;;;;;;7.28;3.97;;;3.80;72.20;;;;;;5072265;28;20115;-71
2023/04/06 04:02:05;;;;;;;8.73;4.18;;;3.70;72.20;;;;;;5072322;28;20082;-71
2023/04/06 04:04:31;;;;;;;6.70;3.97;;;3.70;72.30;;;;;;5072279;28;20037;-71
2023/04/06 04:06:56;;;;;;;8.50;4.28;;;3.70;72.40;;;;;;5072529;28;20093;-71
2023/04/06 04:09:22;;;;;;;7.35;4.50;;;3.70;72.50;;;;;;5072441;28;20044;-71
2023/04/06 04:11:48;;;;;;;6.22;4.15;;;3.70;72.40;;;;;;5072126;28;20530;-71
2023/04/06 04:14:13;;;;;;;6.55;4.72;;;3.60;72.50;;;;;;5072423;28;20044;-71
2023/04/06 04:16:39;;;;;;;6.63;4.55;;;3.60;72.50;;;;;;5072039;28;20540;-71
2023/04/06 04:19:05;;;;;;;7.43;4.40;;;3.60;72.90;;;;;;5055643;28;20058;-71
2023/04/06 04:21:31;;;;;;;8.57;4.70;;;3.60;73.00;;;;;;5055304;28;20094;-71
2023/04/06 04:23:57;;;;;;;5.72;4.10;;;3.50;73.10;;;;;;5072307;28;20090;-71
2023/04/06 04:26:23;;;;;;;9.98;4.78;;;3.50;73.30;;;;;;5055360;28;20408;-71
2023/04/06 04:28:48;;;;;;;7.63;4.57;;;3.50;73.20;;;;;;5072026;28;20044;-71
2023/04/06 04:31:14;;;;;;;9.57;4.63;;;3.40;73.30;;;;;;5071890;28;20037;-71
2023/04/06 04:33:40;;;;;;;7.20;4.50;;;3.50;73.40;;;;;;5071885;28;20048;-71
2023/04/06 04:36:05;;;;;;;9.00;4.80;;;3.40;73.50;;;;;;5055128;28;20044;-71
2023/04/06 04:38:31;;;;;;;8.75;5.45;;;3.40;73.80;;;;;;5071930;28;20064;-71
2023/04/06 04:40:57;;;;;;;6.35;4.63;;;3.40;73.90;;;;;;5071540;28;20040;-71
2023/04/06 04:43:22;;;;;;;6.72;4.38;;;3.40;74.20;;;;;;5072093;28;20094;-71
2023/04/06 04:45:48;;;;;;;7.75;4.85;;;3.40;74.00;;;;;;5071812;28;20072;-71
2023/04/06 04:48:13;;;;;;;7.15;4.72;;;3.40;74.10;;;;;;5055111;28;20068;-71
2023/04/06 04:50:39;;;;;;;11.05;5.13;;;3.30;74.20;;;;;;5071960;28;20045;-71
2023/04/06 04:53:05;;;;;;;8.52;4.72;;;3.30;74.20;;;;;;5071727;28;20033;-71
2023/04/06 04:55:31;;;;;;;10.15;4.90;;;3.30;74.40;;;;;;5055023;28;20032;-71
2023/04/06 04:57:57;;;;;;;7.82;5.22;;;3.30;74.60;;;;;;5071560;28;20047;-71
2023/04/06 05:00:23;;;;;;;10.52;5.45;;;3.30;74.60;;;;;;5072346;28;20099;-71
2023/04/06 05:02:48;;;;;;;9.18;5.60;;;3.30;74.70;;;;;;5071632;28;20032;-71
2023/04/06 05:05:14;;;;;;;8.95;5.00;;;3.30;74.80;;;;;;5054926;28;20032;-71
2023/04/06 05:07:40;;;;;;;10.50;5.40;;;3.30;74.80;;;;;;5054851;28;20044;-71
2023/04/06 05:10:06;;;;;;;11.85;5.13;;;3.30;75.00;;;;;;5055017;28;20037;-71
2023/04/06 05:12:32;;;;;;;6.88;4.82;;;3.30;75.10;;;;;;5071519;28;20080;-71
2023/04/06 05:14:57;;;;;;;9.85;5.65;;;3.20;75.40;;;;;;5055101;28;20071;-71
2023/04/06 05:17:23;;;;;;;8.32;5.20;;;3.20;75.40;;;;;;5071548;28;20404;-71
2023/04/06 05:19:49;;;;;;;10.32;5.30;;;3.20;75.40;;;;;;5054706;28;20400;-71
2023/04/06 05:22:17;;;;;;;12.95;5.60;;;3.20;75.40;;;;;;5071450;28;20032;-71
2023/04/06 05:24:43;;;;;;;10.15;5.50;;;3.20;75.30;;;;;;5071635;28;20071;-71
2023/04/06 05:27:08;;;;;;;12.25;6.57;;;3.20;75.40;;;;;;5038094;28;20036;-71
2023/04/06 05:29:34;;;;;;;11.80;5.78;;;3.20;75.40;;;;;;5071548;28;20040;-71
2023/04/06 05:32:00;;;;;;;12.57;6.15;;;3.20;75.40;;;;;;5071622;28;20400;-71
2023/04/06 05:34:26;;;;;;;8.50;6.05;;;3.20;75.50;;;;;;5071349;28;20078;-71
2023/04/06 05:36:52;;;;;;;8.82;5.75;;;3.20;75.40;;;;;;5071344;28;20078;-71
2023/04/06 05:39:17;;;;;;;11.68;6.07;;;3.20;75.40;;;;;;5071075;28;20123;-70
2023/04/06 05:41:43;;;;;;;8.23;5.57;;;3.20;75.50;;;;;;5071355;28;20040;-71
2023/04/06 05:44:08;;;;;;;7.93;5.80;;;3.30;75.60;;;;;;5071286;28;20040;-71
2023/04/06 05:46:34;;;;;;;10.50;5.53;;;3.30;75.50;;;;;;5071270;28;20040;-71
2023/04/06 05:49:00;;;;;;;8.20;5.40;;;3.30;75.40;;;;;;5071428;28;20169;-71
2023/04/06 05:51:26;;;;;;;13.18;6.18;;;3.30;75.60;;;;;;5071405;28;20496;-71
2023/04/06 05:53:52;;;;;;;8.93;5.68;;;3.40;75.50;;;;;;5074187;28;20074;-71
2023/04/06 05:56:17;;;;;;;12.32;5.97;;;3.40;75.60;;;;;;5075105;28;20484;-70
2023/04/06 05:58:43;;;;;;;7.70;6.25;;;3.40;75.60;;;;;;5074985;28;20560;-70
2023/04/06 06:01:09;;;;;;;8.82;6.00;;;3.40;75.50;;;;;;5075317;28;20037;-70
2023/04/06 06:03:35;;;;;;;11.30;5.75;;;3.50;75.50;;;;;;5058075;28;20039;-70
2023/04/06 06:06:02;;;;;;;10.80;5.90;;;3.50;75.70;;;;;;5057937;28;20037;-70
2023/04/06 06:08:28;;;;;;;10.23;6.28;;;3.50;75.60;;;;;;5057967;28;20135;-70
2023/04/06 06:10:54;;;;;;;7.60;6.38;;;3.50;75.50;;;;;;5057855;28;20119;-70
2023/04/06 06:13:19;;;;;;;8.85;5.97;;;3.60;75.60;;;;;;5074505;28;20075;-70
2023/04/06 06:15:45;;;;;;;12.02;6.57;;;3.60;75.70;;;;;;5074802;28;20075;-70
2023/04/06 06:18:10;;;;;;;9.38;6.32;;;3.60;75.60;;;;;;5074424;28;20483;-70
2023/04/06 06:20:36;;;;;;;11.13;6.03;;;3.70;75.70;;;;;;5074397;28;20044;-70
2023/04/06 06:23:02;;;;;;;9.18;6.35;;;3.70;75.70;;;;;;5074727;28;20048;-70
2023/04/06 06:25:30;;;;;;;10.30;6.95;;;3.80;75.50;;;;;;5057667;28;20037;-70
2023/04/06 06:27:56;;;;;;;12.15;7.28;;;3.90;75.60;;;;;;5057845;28;20056;-70
2023/04/06 06:30:21;;;;;;;10.38;7.10;;;4.00;75.60;;;;;;5074420;28;20041;-70
2023/04/06 06:32:47;;;;;;;8.30;6.57;;;4.00;75.60;;;;;;5074197;28;20516;-70
2023/04/06 06:35:13;;;;;;;10.48;6.72;;;4.00;75.60;;;;;;5041129;28;20098;-72
2023/04/06 06:37:39;;;;;;;10.43;6.57;;;4.00;75.50;;;;;;5057306;28;20503;-70
2023/04/06 06:40:05;;;;;;;11.13;7.13;;;4.10;75.70;;;;;;5057201;28;20041;-70
2023/04/06 06:42:30;;;;;;;8.90;6.75;;;4.10;75.80;;;;;;5074373;28;20074;-70
2023/04/06 06:44:56;;;;;;;9.77;6.30;;;4.20;75.90;;;;;;5074213;28;20557;-70
2023/04/06 06:47:22;;;;;;;11.52;6.88;;;4.20;75.70;;;;;;5073863;28;20492;-70
2023/04/06 06:49:47;;;;;;;12.65;6.80;;;4.30;75.60;;;;;;5074021;28;20049;-70
2023/04/06 06:52:13;;;;;;;12.27;6.25;;;4.30;75.60;;;;;;5073815;28;20523;-70
2023/04/06 06:54:38;;;;;;;8.27;7.00;;;4.40;75.50;;;;;;5074001;28;20094;-70
2023/04/06 06:57:04;;;;;;;12.10;6.38;;;4.40;75.60;;;;;;5073681;28;20444;-70
2023/04/06 06:59:29;;;;;;;12.80;7.25;;;4.50;75.50;;;;;;5073592;28;20086;-70
2023/04/06 07:01:55;;;;;;;9.70;6.55;;;4.60;75.50;;;;;;5073636;28;20033;-69
2023/04/06 07:04:21;;;;;;;9.60;7.15;;;4.70;76.30;;;;;;5073563;28;20029;-69
2023/04/06 07:06:46;;;;;;;9.57;7.13;;;4.80;75.50;;;;;;5040305;28;20125;-69
2023/04/06 07:09:12;;;;;;;13.13;7.32;;;4.80;75.60;;;;;;5056827;28;20044;-69
2023/04/06 07:11:37;;;;;;;10.80;7.10;;;4.90;75.80;;;;;;5073399;28;20040;-69
2023/04/06 07:14:03;;;;;;;8.93;7.10;;;5.00;75.80;;;;;;5073328;28;20051;-70
2023/04/06 07:16:28;;;;;;;10.70;6.93;;;5.10;75.60;;;;;;5073237;28;20052;-69
2023/04/06 07:18:54;;;;;;;10.93;7.22;;;5.10;75.40;;;;;;5056917;28;20050;-69
2023/04/06 07:21:20;;;;;;;12.32;7.60;;;5.20;75.40;;;;;;5056527;28;20378;-69
2023/04/06 07:23:47;;;;;;;11.13;7.85;;;5.30;75.30;;;;;;5073433;28;20139;-74
2023/04/06 07:26:13;;;;;;;8.55;6.88;;;5.40;75.20;;;;;;5073326;28;20036;-70
2023/04/06 07:28:39;;;;;;;15.52;8.15;;;5.50;75.00;;;;;;5073214;28;20386;-70
2023/04/06 07:31:05;;;;;;;10.48;7.15;;;5.60;75.10;;;;;;5073323;28;20032;-70
2023/04/06 07:33:31;;;;;;;15.02;7.10;;;5.70;74.90;;;;;;5056572;28;20527;-70
2023/04/06 07:35:58;;;;;;;11.07;7.65;;;5.80;74.80;;;;;;5056434;28;20033;-70
2023/04/06 07:38:24;;;;;;;12.13;7.32;;;5.90;74.80;;;;;;5073059;28;20052;-71
2023/04/06 07:40:50;;;;;;;12.77;7.65;;;6.00;74.70;;;;;;5056056;28;20032;-71
2023/04/06 07:43:16;;;;;;;15.18;7.68;;;6.20;74.50;;;;;;5073043;28;20036;-71
2023/04/06 07:45:41;;;;;;;11.10;7.55;;;6.30;74.40;;;;;;5072979;28;20040;-70
2023/04/06 07:48:07;;;;;;;12.05;7.65;;;6.50;74.40;;;;;;5072649;28;20037;-70
2023/04/06 07:50:33;;;;;;;12.13;8.18;;;6.60;74.20;;;;;;5055938;28;20051;-70
2023/04/06 07:52:59;;;;;;;10.18;7.35;;;6.70;73.80;;;;;;5072561;28;20083;-71
2023/04/06 07:55:25;;;;;;;10.30;7.57;;;6.90;73.60;;;;;;5072702;28;20043;-71
2023/04/06 07:57:51;;;;;;;14.25;8.18;;;7.00;73.30;;;;;;5072423;28;20036;-70
2023/04/06 08:00:16;;;;;;;10.50;7.88;;;7.20;73.50;;;;;;5072351;28;20033;-70
2023/04/06 08:02:42;;;;;;;10.80;8.25;;;7.40;73.20;;;;;;5055740;28;20036;-70
2023/04/06 08:05:08;;;;;;;9.65;7.60;;;7.50;73.10;;;;;;5055764;28;20036;-69
2023/04/06 08:07:35;;;;;;;12.30;8.55;;;7.70;72.50;;;;;;5055962;28;20062;-70
2023/04/06 08:10:01;;;;;;;11.38;8.45;;;7.80;72.30;;;;;;5055518;28;20392;-70
2023/04/06 08:12:26;;;;;;;9.75;7.70;;;8.00;71.60;;;;;;5038994;28;20090;-70
2023/04/06 08:14:52;;;;;;;12.18;8.40;;;8.20;71.30;;;;;;5072320;28;20079;-70
2023/04/06 08:17:18;;;;;;;11.18;8.00;;;8.40;70.60;;;;;;5071948;28;20032;-71
2023/04/06 08:19:44;;;;;;;13.20;8.27;;;8.60;70.10;;;;;;5072125;28;20044;-70
2023/04/06 08:22:10;;;;;;;14.93;8.20;;;8.80;70.20;;;;;;5039092;28;20439;-70
2023/04/06 08:24:36;;;;;;;14.30;8.50;;;9.00;69.40;;;;;;5072044;28;20032;-70
2023/04/06 08:27:01;;;;;;;11.52;8.43;;;9.30;69.40;;;;;;5072383;28;20105;-70
2023/04/06 08:29:27;;;;;;;10.98;8.27;;;9.60;68.70;;;;;;5071947;28;20555;-70
2023/04/06 08:31:52;;;;;;;11.63;7.90;;;9.80;67.80;;;;;;5055356;28;20093;-70
2023/04/06 08:34:18;;;;;;;12.25;8.85;;;9.90;67.10;;;;;;5055566;28;20052;-70
2023/04/06 08:36:45;;;;;;;13.23;8.23;;;10.00;67.20;;;;;;5071891;28;20045;-70
2023/04/06 08:39:11;;;;;;;12.85;8.55;;;10.00;66.50;;;;;;5071804;28;20416;-70
2023/04/06 08:41:36;;;;;;;14.73;8.18;;;10.20;66.60;;;;;;5072216;28;20036;-70
2023/04/06 08:44:03;;;;;;;18.58;8.18;;;10.40;66.00;;;;;;5071861;28;20102;-70
2023/04/06 08:46:30;;;;;;;11.32;8.07;;;10.70;65.20;;;;;;5055109;28;20062;-70
2023/04/06 08:49:00;;;;;;;11.02;7.78;;;10.90;65.50;;;;;;5055356;28;20044;-70
2023/04/06 08:51:26;;;;;;;13.88;8.68;;;11.20;65.20;;;;;;5071771;28;20044;-70
2023/04/06 08:53:56;;;;;;;12.70;9.10;;;11.40;64.30;;;;;;5055052;28;20447;-70
2023/04/06 08:56:24;;;;;;;13.70;8.32;;;11.50;63.70;;;;;;5038375;28;20047;-70
2023/04/06 08:58:51;;;;;;;11.85;7.90;;;11.60;62.60;;;;;;5055311;28;20052;-70
2023/04/06 09:01:20;;;;;;;12.63;8.38;;;11.60;61.40;;;;;;5071632;28;20047;-70
2023/04/06 09:03:48;;;;;;;13.98;8.98;;;11.40;61.60;;;;;;5071670;28;20043;-70
2023/04/06 09:06:14;;;;;;;13.73;8.88;;;11.20;62.30;;;;;;5055199;28;20127;-70
2023/04/06 09:08:40;;;;;;;14.23;9.65;;;11.00;62.20;;;;;;5071892;28;20079;-70
2023/04/06 09:11:07;;;;;;;12.27;8.55;;;10.80;62.80;;;;;;5071520;28;20443;-70
2023/04/06 09:13:48;;;;;;;14.93;9.32;;;10.80;63.30;;;;;;5054735;28;20546;-70
2023/04/06 09:16:15;;;;;;;13.07;9.25;;;10.80;63.50;;;;;;5054853;28;20068;-70
2023/04/06 09:18:41;;;;;;;15.75;9.23;;;10.90;63.30;;;;;;5054785;28;20472;-70
2023/04/06 09:21:07;;;;;;;12.18;8.80;;;11.00;63.50;;;;;;5071729;28;20048;-70
2023/04/06 09:23:34;;;;;;;14.65;9.52;;;11.20;63.70;;;;;;5054749;28;20078;-70
2023/04/06 09:26:08;;;;;;;14.75;9.30;;;11.30;62.80;;;;;;5054726;28;20040;-70
2023/04/06 09:28:45;;;;;;;16.38;9.80;;;11.50;62.50;;;;;;5074080;28;20129;-70
2023/04/06 09:31:11;;;;;;;13.48;9.43;;;11.70;62.30;;;;;;5075181;28;20439;-70
2023/04/06 09:33:39;;;;;;;13.13;10.45;;;11.80;61.70;;;;;;5058627;28;20044;-70
2023/04/06 09:36:06;;;;;;;24.90;10.85;;;11.80;61.10;;;;;;5075684;28;20071;-70
2023/04/06 09:38:32;;;;;;;14.30;10.85;;;11.80;61.40;;;;;;5075398;28;20037;-70
2023/04/06 09:40:57;;;;;;;17.65;10.52;;;11.90;61.80;;;;;;5058244;28;20069;-69
2023/04/06 09:43:28;;;;;;;15.70;11.52;;;11.90;61.60;;;;;;5058392;28;20093;-69
2023/04/06 09:45:55;;;;;;;15.75;11.38;;;12.00;60.70;;;;;;5059098;28;20048;-70
2023/04/06 09:48:22;;;;;;;14.95;10.80;;;12.00;60.00;;;;;;5074899;28;20040;-69
2023/04/06 09:50:58;;;;;;;15.70;11.35;;;11.80;60.00;;;;;;5058189;28;20124;-69
2023/04/06 09:53:28;;;;;;;15.60;10.70;;;11.70;60.30;;;;;;5058204;28;20048;-70
2023/04/06 09:56:01;;;;;;;15.80;11.80;;;11.70;61.00;;;;;;5058465;28;20059;-70
2023/04/06 09:58:29;;;;;;;21.20;11.82;;;11.80;61.60;;;;;;5058161;28;20045;-70
2023/04/06 10:01:04;;;;;;;18.05;11.73;;;11.90;62.10;;;;;;5058275;28;20041;-70
2023/04/06 10:04:06;;;;;;;19.67;12.30;;;12.00;61.00;;;;;;5058086;28;20041;-70
2023/04/06 10:06:35;;;;;;;17.38;11.85;;;12.10;61.30;;;;;;5017352;28;20048;-69
2023/04/06 10:09:04;;;;;;;17.23;12.20;;;12.20;62.10;;;;;;5051048;28;20060;-70
2023/04/06 10:11:30;;;;;;;18.42;12.65;;;12.40;60.80;;;;;;5058130;28;20563;-70
2023/04/06 10:13:57;;;;;;;17.05;12.13;;;12.60;60.40;;;;;;5074569;28;20166;-69
2023/04/06 10:16:22;;;;;;;17.60;13.13;;;12.80;60.10;;;;;;5074697;28;20044;-70
2023/04/06 10:18:54;;;;;;;20.83;12.80;;;13.10;59.80;;;;;;5074529;28;20116;-70
2023/04/06 10:21:24;;;;;;;18.63;12.50;;;13.40;58.90;;;;;;5074342;28;20029;-70
2023/04/06 10:24:02;;;;;;;18.08;13.07;;;13.60;58.70;;;;;;5074387;28;20091;-70
2023/04/06 10:26:27;;;;;;;16.75;12.77;;;13.90;58.50;;;;;;5057662;28;20038;-70
2023/04/06 10:28:54;;;;;;;17.95;13.68;;;14.10;57.10;;;;;;5074291;28;20037;-69
2023/04/06 10:31:27;;;;;;;18.00;13.80;;;14.30;57.70;;;;;;5057367;28;20123;-70
2023/04/06 10:34:02;;;;;;;20.88;14.27;;;14.50;56.70;;;;;;5074179;28;20070;-70
2023/04/06 10:36:33;;;;;;;19.63;12.95;;;14.60;56.00;;;;;;5057396;28;20055;-70
2023/04/06 10:39:02;;;;;;;20.38;14.20;;;14.50;55.70;;;;;;5073792;28;20086;-70
2023/04/06 10:41:34;;;;;;;18.98;14.38;;;14.30;56.50;;;;;;5057085;28;20048;-70
2023/04/06 10:44:01;;;;;;;17.55;14.05;;;14.30;56.80;;;;;;5073892;28;20075;-70
2023/04/06 10:46:30;;;;;;;23.58;13.85;;;14.30;57.10;;;;;;5057106;28;20044;-70
2023/04/06 10:48:56;;;;;;;18.83;15.25;;;14.20;56.50;;;;;;5057111;28;20044;-70
2023/04/06 10:51:28;;;;;;;22.17;17.38;;;14.30;55.30;;;;;;5073793;28;20049;-69
2023/04/06 10:53:55;;;;;;;26.23;17.55;;;14.00;54.30;;;;;;5056977;28;20511;-69
2023/04/06 10:56:26;;;;;;;22.77;17.25;;;13.60;55.40;;;;;;5057148;28;20119;-69
2023/04/06 10:58:55;;;;;;;21.27;16.95;;;13.60;55.70;;;;;;5056801;28;20044;-70
2023/04/06 11:01:23;;;;;;;24.30;16.88;;;13.70;55.40;;;;;;5057069;28;20045;-69
2023/04/06 11:03:59;;;;;;;25.58;19.30;;;13.70;55.20;;;;;;5057294;28;20438;-70
2023/04/06 11:06:26;;;;;;;24.10;18.50;;;13.70;54.40;;;;;;5056978;28;20065;-70
2023/04/06 11:08:52;;;;;;;27.00;19.33;;;13.70;55.10;;;;;;5073672;28;20051;-70
2023/04/06 11:11:20;;;;;;;25.27;18.77;;;13.70;55.10;;;;;;5073367;28;20416;-70
2023/04/06 11:13:51;;;;;;;29.17;20.63;;;13.80;55.40;;;;;;5056836;28;20106;-70
2023/04/06 11:16:21;;;;;;;31.30;20.98;;;13.70;55.10;;;;;;5056483;28;20044;-70
2023/04/06 11:18:54;;;;;;;25.75;19.88;;;13.50;55.30;;;;;;5073167;28;20123;-69
2023/04/06 11:21:31;;;;;;;;;;;13.30;55.80;;;;;;5057295;28;20400;-70
2023/04/06 11:24:22;;;;;;;28.52;20.52;;;13.10;55.80;;;;;;5073283;28;19924;-70
2023/04/06 11:26:52;;;;;;;29.52;20.58;;;13.00;55.30;;;;;;5056374;28;20042;-70
2023/04/06 11:29:23;;;;;;;29.02;20.63;;;13.00;55.60;;;;;;5056331;28;20382;-70
2023/04/06 11:31:53;;;;;;;25.85;20.20;;;13.00;55.30;;;;;;5073357;28;20036;-70
2023/04/06 11:34:24;;;;;;;29.60;21.90;;;13.00;55.60;;;;;;5072834;28;20041;-70
2023/04/06 11:36:56;;;;;;;29.65;20.23;;;13.10;54.90;;;;;;5056120;28;20042;-72
2023/04/06 11:39:23;;;;;;;28.58;20.42;;;13.00;54.70;;;;;;5072631;28;20041;-70
2023/04/06 11:41:51;;;;;;;145.88;25.55;;;13.00;55.20;;;;;;5073625;28;20040;-70
2023/04/06 11:44:34;;;;;;;27.55;21.08;;;13.10;55.30;;;;;;5057189;28;20032;-70
2023/04/06 11:47:05;;;;;;;28.35;20.08;;;13.10;55.30;;;;;;5056109;28;20047;-70
2023/04/06 11:49:32;;;;;;;25.80;20.67;;;13.20;54.60;;;;;;5072554;28;20032;-70
2023/04/06 11:51:59;;;;;;;25.15;19.38;;;13.20;55.00;;;;;;5055640;28;20135;-70
2023/04/06 11:54:36;;;;;;;29.33;19.85;;;13.30;54.80;;;;;;5072845;28;20052;-70
2023/04/06 11:57:03;;;;;;;25.92;19.42;;;13.30;53.70;;;;;;5072501;28;20045;-70
2023/04/06 11:59:29;;;;;;;28.42;20.83;;;13.30;53.70;;;;;;5055775;28;20041;-70
2023/04/06 12:01:56;;;;;;;31.42;20.08;;;13.30;53.30;;;;;;5055753;28;20044;-70
2023/04/06 12:04:22;;;;;;;25.77;20.05;;;13.20;53.20;;;;;;5072396;28;20119;-70
2023/04/06 12:06:48;;;;;;;25.05;19.55;;;13.20;54.10;;;;;;5055785;28;20127;-70
2023/04/06 12:09:14;;;;;;;26.48;20.05;;;13.20;53.60;;;;;;5055713;28;20048;-70
2023/04/06 12:11:40;;;;;;;29.13;20.00;;;13.30;53.40;;;;;;5072186;28;20076;-70
2023/04/06 12:14:07;;;;;;;27.85;19.27;;;13.40;53.20;;;;;;5055818;28;20546;-70
2023/04/06 12:16:34;;;;;;;27.95;19.60;;;13.50;54.00;;;;;;5038814;28;20519;-70
2023/04/06 12:18:59;;;;;;;40.67;20.05;;;13.60;53.60;;;;;;5072067;28;20045;-70
2023/04/06 12:21:27;;;;;;;26.42;19.13;;;13.70;53.40;;;;;;5072153;28;20037;-70
2023/04/06 12:23:52;;;;;;;27.05;18.30;;;13.80;53.40;;;;;;5055419;28;20076;-70
2023/04/06 12:26:18;;;;;;;35.97;19.35;;;13.90;53.30;;;;;;5072274;28;20075;-70
2023/04/06 12:28:44;;;;;;;46.83;19.75;;;14.00;53.00;;;;;;5072342;28;20044;-70
2023/04/06 12:31:21;;;;;;;26.02;18.58;;;13.90;52.50;;;;;;5055577;28;20057;-70
2023/04/06 12:33:48;;;;;;;25.15;18.45;;;13.90;52.40;;;;;;5072179;28;20040;-70
2023/04/06 12:36:21;;;;;;;21.85;17.52;;;13.90;52.60;;;;;;5071823;28;20047;-70
2023/04/06 12:38:51;;;;;;;26.77;18.52;;;13.90;52.90;;;;;;5055205;28;20032;-70
2023/04/06 12:41:17;;;;;;;25.20;19.25;;;13.90;53.70;;;;;;5071723;28;20041;-70
2023/04/06 12:43:45;;;;;;;24.23;17.77;;;13.80;54.20;;;;;;5072047;28;20127;-70